Aviation Digital Data Service (ADDS)

Output produced by METARs form (1236 UTC 24 May 2022)
found at http://www.aviationweather.gov/metar/data/
 
TAPA 241200Z 09009KT 040V160 9999 BKN018 28/21 Q1016 NOSIG
TAPA 241100Z 08009KT 030V130 9999 SCT018 27/22 Q1016 NOSIG
TAPA 241000Z 09006KT 050V120 9999 SCT018 26/21 Q1015 NOSIG
TAPA 240900Z 09007KT 040V120 9999 SCT018 26/21 Q1015 NOSIG
TAF TAPA 241100Z 2412/2512 09007KT 9999 SCT018 
     PROB30 
     TEMPO 2502/2512 SHRA
       
TRPG 241200Z 09014KT 9999 FEW018 27/22 Q1017
TRPG 241100Z 09014KT 9999 SCT017 26/22 Q1017
TRPG 241000Z 09013KT 9999 BKN014 25/22 Q1016
TAF TRPG 241100Z 2412/2512 09012KT 9999 SCT018 
     PROB30 
     TEMPO 2502/2512 SHRA
       
TKPK 241200Z 07009KT 9999 SCT018 27/23 Q1016
TKPK 241100Z 07012KT 9999 SCT016 27/22 Q1016
TKPK 241000Z 05011KT 9999 FEW017 26/22 Q1015
TAF TKPK 241100Z 2412/2512 09009KT 9999 SCT018 
     PROB30 
     TEMPO 2502/2512 SHRA
       
TKPN 241100Z 09014KT 9999 SCT022 27/24 Q1015
TAF TKPN 241100Z 2412/2512 09009KT 9999 SCT018 
     PROB30 
     TEMPO 2502/2512 SHRA
       
TQPF 241200Z 08011KT 9999 SCT019 27/22 Q1017
TQPF 241100Z 08010KT 9999 SCT019 26/22 Q1016
TAF TQPF 241100Z 2412/2512 09012KT 9999 SCT018
       
TUPJ 241200Z 09009KT 10SM SCT021 28/22 A3003 RMK Q1016 VIS 16KM
TUPJ 241100Z 08007KT 10SM FEW021 27/23 A3001 RMK Q1016 VIS 16KM
TAF TUPJ 241100Z 2412/2512 09010KT 9999 SCT018